createdAt,value
2023-02-20T00:01:31.570Z,99.90
2023-02-20T00:03:59.034Z,99.90
2023-02-20T00:06:26.327Z,99.90
2023-02-20T00:08:53.626Z,99.90
2023-02-20T00:11:21.005Z,99.90
2023-02-20T00:13:48.683Z,99.90
2023-02-20T00:16:16.203Z,99.90
2023-02-20T00:18:44.507Z,99.90
2023-02-20T00:21:11.918Z,99.90
2023-02-20T00:23:39.326Z,99.90
2023-02-20T00:26:11.482Z,99.90
2023-02-20T00:28:39.990Z,99.90
2023-02-20T00:31:07.845Z,99.90
2023-02-20T00:33:36.989Z,99.90
2023-02-20T00:36:04.978Z,99.90
2023-02-20T00:38:32.566Z,99.90
2023-02-20T00:41:02.332Z,99.90
2023-02-20T00:43:31.614Z,99.90
2023-02-20T00:45:58.957Z,99.90
2023-02-20T00:48:26.296Z,99.90
2023-02-20T00:51:13.514Z,99.90
2023-02-20T00:53:40.897Z,99.90
2023-02-20T00:56:08.275Z,99.90
2023-02-20T00:58:35.580Z,99.90
2023-02-20T01:01:02.943Z,99.90
2023-02-20T01:03:30.260Z,99.90
2023-02-20T01:05:57.588Z,99.90
2023-02-20T01:08:25.014Z,99.90
2023-02-20T01:10:52.313Z,99.90
2023-02-20T01:13:19.692Z,99.90
2023-02-20T01:15:47.252Z,99.90
2023-02-20T01:18:14.786Z,99.90
2023-02-20T01:20:42.173Z,99.90
2023-02-20T01:23:09.540Z,99.90
2023-02-20T01:25:36.861Z,99.90
2023-02-20T01:28:04.356Z,99.90
2023-02-20T01:30:31.743Z,99.90
2023-02-20T01:32:59.078Z,99.90
2023-02-20T01:35:31.044Z,99.90
2023-02-20T01:37:59.462Z,99.90
2023-02-20T01:40:27.544Z,99.90
2023-02-20T01:42:54.959Z,99.90
2023-02-20T01:45:22.267Z,99.90
2023-02-20T01:47:51.161Z,99.90
2023-02-20T01:50:20.172Z,99.90
2023-02-20T01:52:49.725Z,99.90
2023-02-20T01:55:26.257Z,99.90
2023-02-20T01:58:19.888Z,99.90
2023-02-20T02:00:47.242Z,99.90
2023-02-20T02:03:18.366Z,99.90
2023-02-20T02:05:47.717Z,99.90
2023-02-20T02:08:16.252Z,99.90
2023-02-20T02:10:51.456Z,99.90
2023-02-20T02:13:18.792Z,99.90
2023-02-20T02:15:46.210Z,99.90
2023-02-20T02:18:23.239Z,99.90
2023-02-20T02:21:14.495Z,99.90
2023-02-20T02:24:06.181Z,99.90
2023-02-20T02:26:52.399Z,99.90
2023-02-20T02:29:52.472Z,99.90
2023-02-20T02:32:19.764Z,99.90
2023-02-20T02:34:53.300Z,99.90
2023-02-20T02:37:45.478Z,99.90
2023-02-20T02:40:45.226Z,99.90
2023-02-20T02:43:16.195Z,99.90
2023-02-20T02:45:46.308Z,99.90
2023-02-20T02:48:23.063Z,99.90
2023-02-20T02:50:50.475Z,99.90
2023-02-20T02:53:17.945Z,99.90
2023-02-20T02:55:45.231Z,99.90
2023-02-20T02:58:12.550Z,99.90
2023-02-20T03:00:42.654Z,99.90
2023-02-20T03:03:16.812Z,99.90
2023-02-20T03:05:54.967Z,99.90
2023-02-20T03:08:33.312Z,99.90
2023-02-20T03:11:19.949Z,99.90
2023-02-20T03:14:24.035Z,99.90
2023-02-20T03:17:15.042Z,99.90
2023-02-20T03:19:51.679Z,99.90
2023-02-20T03:22:31.144Z,99.90
2023-02-20T03:25:22.620Z,99.90
2023-02-20T03:28:25.876Z,99.90
2023-02-20T03:31:05.370Z,99.90
2023-02-20T03:34:16.258Z,99.90
2023-02-20T03:37:08.556Z,99.90
2023-02-20T03:39:58.271Z,99.90
2023-02-20T03:42:43.947Z,99.90
2023-02-20T03:45:20.404Z,99.90
2023-02-20T03:47:48.327Z,99.90
2023-02-20T03:50:16.057Z,99.90
2023-02-20T03:52:43.843Z,99.90
2023-02-20T03:55:12.086Z,99.90
2023-02-20T03:57:45.369Z,99.90
2023-02-20T04:00:20.507Z,99.90
2023-02-20T04:02:54.370Z,99.90
2023-02-20T04:05:26.457Z,99.90
2023-02-20T04:08:06.164Z,99.90
2023-02-20T04:10:41.366Z,99.90
2023-02-20T04:13:09.131Z,99.90
2023-02-20T04:15:37.844Z,99.90
2023-02-20T04:18:10.020Z,99.90
2023-02-20T04:20:37.996Z,99.90
2023-02-20T04:23:17.456Z,99.90
2023-02-20T04:25:53.394Z,99.90
2023-02-20T04:28:20.834Z,99.90
2023-02-20T04:30:55.154Z,99.90
2023-02-20T04:33:22.619Z,99.90
2023-02-20T04:35:52.350Z,99.90
2023-02-20T04:38:19.867Z,99.90
2023-02-20T04:40:47.276Z,99.90
2023-02-20T04:43:14.604Z,99.90
2023-02-20T04:45:41.994Z,99.90
2023-02-20T04:48:09.795Z,99.90
2023-02-20T04:50:38.165Z,99.90
2023-02-20T04:53:06.959Z,99.90
2023-02-20T04:55:34.308Z,99.90
2023-02-20T04:58:07.588Z,99.90
2023-02-20T05:00:48.639Z,99.90
2023-02-20T05:03:15.968Z,99.90
2023-02-20T05:05:43.273Z,99.90
2023-02-20T05:08:10.682Z,99.90
2023-02-20T05:10:37.973Z,99.90
2023-02-20T05:13:05.328Z,99.90
2023-02-20T05:15:32.790Z,99.90
2023-02-20T05:18:00.538Z,99.90
2023-02-20T05:20:46.941Z,99.90
2023-02-20T05:23:14.398Z,99.90
2023-02-20T05:25:41.794Z,99.90
2023-02-20T05:28:09.094Z,99.90
2023-02-20T05:30:36.488Z,99.90
2023-02-20T05:33:03.998Z,99.90
2023-02-20T05:35:31.408Z,99.90
2023-02-20T05:37:58.700Z,99.90
2023-02-20T05:40:25.998Z,99.90
2023-02-20T05:42:53.285Z,99.90
2023-02-20T05:45:20.678Z,99.90
2023-02-20T05:47:47.976Z,99.90
2023-02-20T05:50:15.813Z,99.90
2023-02-20T05:52:43.498Z,99.90
2023-02-20T05:55:10.807Z,99.90
2023-02-20T05:57:38.077Z,99.90
2023-02-20T06:00:05.900Z,99.90
2023-02-20T06:02:39.287Z,99.90
2023-02-20T06:05:07.768Z,99.90
2023-02-20T06:07:35.528Z,99.90
2023-02-20T06:10:03.894Z,99.90
2023-02-20T06:12:31.221Z,99.90
2023-02-20T06:14:58.553Z,99.90
2023-02-20T06:17:25.842Z,99.90
2023-02-20T06:19:53.193Z,99.90
2023-02-20T06:22:20.509Z,99.90
2023-02-20T06:24:48.033Z,99.90
2023-02-20T06:27:15.927Z,99.90
2023-02-20T06:29:43.330Z,99.90
2023-02-20T06:32:10.815Z,99.90
2023-02-20T06:34:38.280Z,99.90
2023-02-20T06:37:05.626Z,99.90
2023-02-20T06:39:33.071Z,99.90
2023-02-20T06:42:00.404Z,99.90
2023-02-20T06:44:27.786Z,99.90
2023-02-20T06:46:55.210Z,99.90
2023-02-20T06:49:22.488Z,99.90
2023-02-20T06:51:53.052Z,99.90
2023-02-20T06:54:21.957Z,99.90
2023-02-20T06:56:49.360Z,99.90
2023-02-20T06:59:16.760Z,99.90
2023-02-20T07:01:44.195Z,99.90
2023-02-20T07:04:22.257Z,99.90
2023-02-20T07:06:49.693Z,99.90
2023-02-20T07:09:17.111Z,99.90
2023-02-20T07:11:44.599Z,99.90
2023-02-20T07:14:12.151Z,99.90
2023-02-20T07:16:39.431Z,99.90
2023-02-20T07:19:06.808Z,99.90
2023-02-20T07:21:34.164Z,99.90
2023-02-20T07:24:01.492Z,99.90
2023-02-20T07:26:29.386Z,99.90
2023-02-20T07:28:58.572Z,99.90
2023-02-20T07:31:26.209Z,99.90
2023-02-20T07:33:53.637Z,99.90
2023-02-20T07:36:21.213Z,99.90
2023-02-20T07:38:55.897Z,99.90
2023-02-20T07:41:24.446Z,99.90
2023-02-20T07:43:51.791Z,99.90
2023-02-20T07:46:20.443Z,99.90
2023-02-20T07:48:48.202Z,99.90
2023-02-20T07:51:15.691Z,99.90
2023-02-20T07:53:50.070Z,99.90
2023-02-20T07:56:17.781Z,99.90
2023-02-20T07:58:45.077Z,99.90
2023-02-20T08:01:12.380Z,99.90
2023-02-20T08:03:39.777Z,99.90
2023-02-20T08:06:07.215Z,99.90
2023-02-20T08:08:34.493Z,99.90
2023-02-20T08:11:08.811Z,99.90
2023-02-20T08:13:37.928Z,99.90
2023-02-20T08:16:05.731Z,99.90
2023-02-20T08:18:33.074Z,99.90
2023-02-20T08:21:00.390Z,99.90
2023-02-20T08:23:27.787Z,99.90
2023-02-20T08:25:55.165Z,99.90
2023-02-20T08:28:22.664Z,99.90
2023-02-20T08:30:50.140Z,99.90
2023-02-20T08:33:18.692Z,99.90
2023-02-20T08:35:48.426Z,99.90
2023-02-20T08:38:35.799Z,99.90
2023-02-20T08:41:07.733Z,99.90
2023-02-20T08:43:35.592Z,99.90
2023-02-20T08:46:03.134Z,99.90
2023-02-20T08:48:30.655Z,99.90
2023-02-20T08:50:57.959Z,99.90
2023-02-20T08:53:25.269Z,99.90
2023-02-20T08:55:52.545Z,99.90
2023-02-20T08:58:23.837Z,99.90
2023-02-20T09:00:52.526Z,99.60
2023-02-20T09:03:19.960Z,99.50
2023-02-20T09:05:47.412Z,99.70
2023-02-20T09:08:14.830Z,99.30
2023-02-20T09:10:42.348Z,99.40
2023-02-20T09:13:09.841Z,99.30
2023-02-20T09:15:39.887Z,99.00
2023-02-20T09:18:09.813Z,98.70
2023-02-20T09:20:38.094Z,98.30
2023-02-20T09:23:05.624Z,98.00
2023-02-20T09:25:33.225Z,97.20
2023-02-20T09:28:00.579Z,97.20
2023-02-20T09:30:28.078Z,97.40
2023-02-20T09:32:55.477Z,96.80
2023-02-20T09:35:27.714Z,96.40
2023-02-20T09:37:55.129Z,96.40
2023-02-20T09:40:26.875Z,96.40
2023-02-20T09:43:03.325Z,95.80
2023-02-20T09:45:34.228Z,95.70
2023-02-20T09:48:23.172Z,95.30
2023-02-20T09:51:05.304Z,95.40
2023-02-20T09:53:37.021Z,94.90
2023-02-20T09:56:05.255Z,94.40
2023-02-20T09:58:54.309Z,94.20
2023-02-20T10:01:22.808Z,93.80
2023-02-20T10:03:57.174Z,93.80
2023-02-20T10:06:26.258Z,93.80
2023-02-20T10:08:53.925Z,93.60
2023-02-20T10:11:41.633Z,93.50
2023-02-20T10:14:39.404Z,93.30
2023-02-20T10:17:21.268Z,92.50
2023-02-20T10:20:30.032Z,92.90
2023-02-20T10:23:06.974Z,91.90
2023-02-20T10:25:37.661Z,91.70
2023-02-20T10:28:13.042Z,91.30
2023-02-20T10:30:51.892Z,91.50
2023-02-20T10:33:46.904Z,91.60
2023-02-20T10:36:53.828Z,91.20
2023-02-20T10:39:22.867Z,91.10
2023-02-20T10:42:05.301Z,91.50
2023-02-20T10:44:37.586Z,90.90
2023-02-20T10:47:43.058Z,91.10
2023-02-20T10:50:21.908Z,91.00
2023-02-20T10:53:00.034Z,90.80
2023-02-20T10:55:39.590Z,90.40
2023-02-20T10:58:11.061Z,90.90
2023-02-20T11:00:44.461Z,90.50
2023-02-20T11:03:46.205Z,90.90
2023-02-20T11:06:16.739Z,90.50
2023-02-20T11:08:44.219Z,90.00
2023-02-20T11:11:33.576Z,89.90
2023-02-20T11:14:13.996Z,89.00
2023-02-20T11:17:19.401Z,89.00
2023-02-20T11:19:47.578Z,87.90
2023-02-20T11:22:15.866Z,86.70
2023-02-20T11:24:45.621Z,87.30
2023-02-20T11:27:25.776Z,86.00
2023-02-20T11:29:55.477Z,83.20
2023-02-20T11:32:31.419Z,83.10
2023-02-20T11:35:17.482Z,81.80
2023-02-20T11:37:55.656Z,81.20
2023-02-20T11:40:29.057Z,81.50
2023-02-20T11:42:56.669Z,81.00
2023-02-20T11:45:29.012Z,80.40
2023-02-20T11:48:15.382Z,80.10
2023-02-20T11:50:48.267Z,79.40
2023-02-20T11:53:20.065Z,79.30
2023-02-20T11:55:58.645Z,79.30
2023-02-20T11:58:27.981Z,78.60
2023-02-20T12:00:55.588Z,78.40
2023-02-20T12:03:28.309Z,78.00
2023-02-20T12:05:56.367Z,78.40
2023-02-20T12:08:38.875Z,77.20
2023-02-20T12:11:13.189Z,75.50
2023-02-20T12:13:42.601Z,75.50
2023-02-20T12:16:34.853Z,76.00
2023-02-20T12:19:11.705Z,75.50
2023-02-20T12:22:16.577Z,75.70
2023-02-20T12:24:54.274Z,74.70
2023-02-20T12:27:24.686Z,74.00
2023-02-20T12:30:14.908Z,73.00
2023-02-20T12:32:51.978Z,72.30
2023-02-20T12:35:25.504Z,71.20
2023-02-20T12:38:04.824Z,71.00
2023-02-20T12:40:42.078Z,70.90
2023-02-20T12:43:21.355Z,70.20
2023-02-20T12:46:01.206Z,69.70
2023-02-20T12:48:46.608Z,71.00
2023-02-20T12:51:43.066Z,70.10
2023-02-20T12:54:37.456Z,69.30
2023-02-20T12:57:26.600Z,68.90
2023-02-20T12:59:58.222Z,68.70
2023-02-20T13:02:40.933Z,70.10
2023-02-20T13:05:11.686Z,68.20
2023-02-20T13:07:42.171Z,67.50
2023-02-20T13:10:16.554Z,67.70
2023-02-20T13:12:43.860Z,69.20
2023-02-20T13:15:35.487Z,68.20
2023-02-20T13:18:32.331Z,68.70
2023-02-20T13:21:09.721Z,66.70
2023-02-20T13:23:37.869Z,66.60
2023-02-20T13:26:45.430Z,65.90
2023-02-20T13:29:17.397Z,67.50
2023-02-20T13:31:48.752Z,66.20
2023-02-20T13:34:16.084Z,65.50
2023-02-20T13:36:48.587Z,65.80
2023-02-20T13:39:19.092Z,64.30
2023-02-20T13:41:55.473Z,63.80
2023-02-20T13:44:33.072Z,64.00
2023-02-20T13:47:28.641Z,63.70
2023-02-20T13:49:58.901Z,64.50
2023-02-20T13:52:29.729Z,62.40
2023-02-20T13:54:57.748Z,63.10
2023-02-20T13:57:29.874Z,63.00
2023-02-20T13:59:57.164Z,62.40
2023-02-20T14:02:29.561Z,62.50
2023-02-20T14:05:04.958Z,61.50
2023-02-20T14:07:37.764Z,61.60
2023-02-20T14:10:15.039Z,62.00
2023-02-20T14:12:42.412Z,62.00
2023-02-20T14:15:09.773Z,63.20
2023-02-20T14:17:39.646Z,62.70
2023-02-20T14:20:14.754Z,62.80
2023-02-20T14:22:42.232Z,63.10
2023-02-20T14:25:12.555Z,62.60
2023-02-20T14:27:40.421Z,63.10
2023-02-20T14:30:14.297Z,64.90
2023-02-20T14:32:49.762Z,64.10
2023-02-20T14:35:39.589Z,64.00
2023-02-20T14:38:36.584Z,63.90
2023-02-20T14:41:16.901Z,64.40
2023-02-20T14:43:44.322Z,64.90
2023-02-20T14:46:21.795Z,65.20
2023-02-20T14:48:49.169Z,64.60
2023-02-20T14:51:24.638Z,65.50
2023-02-20T14:54:03.636Z,65.40
2023-02-20T14:56:34.260Z,65.40
2023-02-20T14:59:28.662Z,64.10
2023-02-20T15:01:58.166Z,64.70
2023-02-20T15:04:26.207Z,64.50
2023-02-20T15:06:54.693Z,63.70
2023-02-20T15:09:23.380Z,63.50
2023-02-20T15:11:53.137Z,63.20
2023-02-20T15:14:25.594Z,63.10
2023-02-20T15:17:09.108Z,63.40
2023-02-20T15:19:43.567Z,63.20
2023-02-20T15:22:21.965Z,63.50
2023-02-20T15:24:49.155Z,62.70
2023-02-20T15:27:24.671Z,62.80
2023-02-20T15:30:17.911Z,63.30
2023-02-20T15:32:51.408Z,63.40
2023-02-20T15:35:24.791Z,63.00
2023-02-20T15:37:58.918Z,63.00
2023-02-20T15:40:31.203Z,62.90
2023-02-20T15:43:04.271Z,63.20
2023-02-20T15:45:32.437Z,63.50
2023-02-20T15:47:59.842Z,63.40
2023-02-20T15:50:27.443Z,63.40
2023-02-20T15:52:55.616Z,63.10
2023-02-20T15:55:23.129Z,63.40
2023-02-20T15:57:51.154Z,63.50
2023-02-20T16:00:25.240Z,63.70
2023-02-20T16:02:53.342Z,63.90
2023-02-20T16:05:21.154Z,64.30
2023-02-20T16:07:48.594Z,64.40
2023-02-20T16:10:17.234Z,64.80
2023-02-20T16:12:44.511Z,65.10
2023-02-20T16:15:18.869Z,65.00
2023-02-20T16:17:46.096Z,65.90
2023-02-20T16:20:21.296Z,66.10
2023-02-20T16:22:48.662Z,65.80
2023-02-20T16:25:17.269Z,65.80
2023-02-20T16:27:45.170Z,66.60
2023-02-20T16:30:32.121Z,67.30
2023-02-20T16:33:01.616Z,67.90
2023-02-20T16:35:29.061Z,68.10
2023-02-20T16:37:56.373Z,68.50
2023-02-20T16:40:23.716Z,69.00
2023-02-20T16:42:51.005Z,68.70
2023-02-20T16:45:19.115Z,69.00
2023-02-20T16:47:53.078Z,69.40
2023-02-20T16:50:23.680Z,70.00
2023-02-20T16:52:51.868Z,70.40
2023-02-20T16:55:25.666Z,70.60
2023-02-20T16:57:53.057Z,71.40
2023-02-20T17:00:22.386Z,71.50
2023-02-20T17:02:49.699Z,72.40
2023-02-20T17:05:18.505Z,72.40
2023-02-20T17:07:45.925Z,72.70
2023-02-20T17:10:13.284Z,72.80
2023-02-20T17:12:41.175Z,73.00
2023-02-20T17:15:09.005Z,73.50
2023-02-20T17:17:36.608Z,74.50
2023-02-20T17:20:04.104Z,75.00
2023-02-20T17:22:31.485Z,75.10
2023-02-20T17:24:59.044Z,76.00
2023-02-20T17:27:26.347Z,76.40
2023-02-20T17:29:54.417Z,77.00
2023-02-20T17:32:21.851Z,77.20
2023-02-20T17:34:49.201Z,77.40
2023-02-20T17:37:16.584Z,77.80
2023-02-20T17:39:43.920Z,78.10
2023-02-20T17:42:12.497Z,78.90
2023-02-20T17:44:40.598Z,78.20
2023-02-20T17:47:11.544Z,78.50
2023-02-20T17:49:41.147Z,78.90
2023-02-20T17:52:09.378Z,78.70
2023-02-20T17:54:36.864Z,77.30
2023-02-20T17:57:04.230Z,77.40
2023-02-20T17:59:31.884Z,76.80
2023-02-20T18:01:59.276Z,76.10
2023-02-20T18:04:26.617Z,77.00
2023-02-20T18:06:54.471Z,77.50
2023-02-20T18:09:21.957Z,77.10
2023-02-20T18:11:49.331Z,76.50
2023-02-20T18:14:18.787Z,75.40
2023-02-20T18:16:47.453Z,75.40
2023-02-20T18:19:15.058Z,75.40
2023-02-20T18:21:43.264Z,75.40
2023-02-20T18:24:11.195Z,74.90
2023-02-20T18:26:38.616Z,75.30
2023-02-20T18:29:05.990Z,74.80
2023-02-20T18:31:33.630Z,74.50
2023-02-20T18:34:01.935Z,74.90
2023-02-20T18:36:29.838Z,74.40
2023-02-20T18:38:57.372Z,74.70
2023-02-20T18:41:25.087Z,74.80
2023-02-20T18:43:52.913Z,74.30
2023-02-20T18:46:34.224Z,74.20
2023-02-20T18:49:02.511Z,74.80
2023-02-20T18:51:33.850Z,75.10
2023-02-20T18:54:01.398Z,74.40
2023-02-20T18:56:28.699Z,75.10
2023-02-20T18:58:56.121Z,74.60
2023-02-20T19:01:23.655Z,74.10
2023-02-20T19:03:52.365Z,74.20
2023-02-20T19:06:28.777Z,74.00
2023-02-20T19:08:56.127Z,74.30
2023-02-20T19:11:23.437Z,74.20
2023-02-20T19:13:50.761Z,74.00
2023-02-20T19:16:18.185Z,73.70
2023-02-20T19:18:50.503Z,74.20
2023-02-20T19:21:18.391Z,73.60
2023-02-20T19:23:45.928Z,73.90
2023-02-20T19:26:13.733Z,73.60
2023-02-20T19:28:42.331Z,73.40
2023-02-20T19:31:10.294Z,73.40
2023-02-20T19:33:37.731Z,73.40
2023-02-20T19:36:05.856Z,73.30
2023-02-20T19:38:34.775Z,73.70
2023-02-20T19:41:02.216Z,73.80
2023-02-20T19:43:30.032Z,74.00
2023-02-20T19:45:57.411Z,73.10
2023-02-20T19:48:26.963Z,73.20
2023-02-20T19:50:56.236Z,73.40
2023-02-20T19:53:23.889Z,73.80
2023-02-20T19:55:54.392Z,73.10
2023-02-20T19:58:22.202Z,73.20
2023-02-20T20:00:49.612Z,73.60
2023-02-20T20:03:18.118Z,73.90
2023-02-20T20:05:45.546Z,73.20
2023-02-20T20:08:12.852Z,73.10
2023-02-20T20:10:40.258Z,73.20
2023-02-20T20:13:07.616Z,73.10
2023-02-20T20:15:36.908Z,73.50
2023-02-20T20:18:04.564Z,73.80
2023-02-20T20:20:33.158Z,73.90
2023-02-20T20:23:02.720Z,73.90
2023-02-20T20:25:30.074Z,74.20
2023-02-20T20:28:01.028Z,74.10
2023-02-20T20:30:30.117Z,74.10
2023-02-20T20:32:57.649Z,74.20
2023-02-20T20:35:26.621Z,74.20
2023-02-20T20:37:54.041Z,74.50
2023-02-20T20:40:22.891Z,74.40
2023-02-20T20:42:50.321Z,74.80
2023-02-20T20:45:18.190Z,74.30
2023-02-20T20:47:45.586Z,74.00
2023-02-20T20:50:31.450Z,73.90
2023-02-20T20:53:00.801Z,73.90
2023-02-20T20:55:28.878Z,74.30
2023-02-20T20:57:56.593Z,73.60
2023-02-20T21:00:29.522Z,74.00
2023-02-20T21:02:57.011Z,74.70
2023-02-20T21:05:27.036Z,74.40
2023-02-20T21:07:54.337Z,74.60
2023-02-20T21:10:21.673Z,74.80
2023-02-20T21:12:49.082Z,75.00
2023-02-20T21:15:16.474Z,75.70
2023-02-20T21:17:43.864Z,75.30
2023-02-20T21:20:18.588Z,75.80
2023-02-20T21:22:45.897Z,76.10
2023-02-20T21:25:13.308Z,76.80
2023-02-20T21:27:40.621Z,77.50
2023-02-20T21:30:09.294Z,77.30
2023-02-20T21:32:36.721Z,78.00
2023-02-20T21:35:04.811Z,77.70
2023-02-20T21:37:32.243Z,77.40
2023-02-20T21:39:59.596Z,77.20
2023-02-20T21:42:45.410Z,76.70
2023-02-20T21:45:12.742Z,77.00
2023-02-20T21:47:40.083Z,76.90
2023-02-20T21:50:07.929Z,76.70
2023-02-20T21:52:38.022Z,76.20
2023-02-20T21:55:07.699Z,76.50
2023-02-20T21:57:35.062Z,76.60
2023-02-20T22:00:02.455Z,76.90
2023-02-20T22:02:33.389Z,76.60
2023-02-20T22:05:00.719Z,77.80
2023-02-20T22:07:46.580Z,77.40
2023-02-20T22:10:32.262Z,76.70
2023-02-20T22:13:18.013Z,76.80
2023-02-20T22:16:03.823Z,76.90
2023-02-20T22:18:49.690Z,76.90
2023-02-20T22:21:42.208Z,77.00
2023-02-20T22:24:37.801Z,76.40
2023-02-20T22:27:25.544Z,76.10
2023-02-20T22:30:11.796Z,76.50
2023-02-20T22:32:57.901Z,77.20
2023-02-20T22:35:43.666Z,76.20
2023-02-20T22:38:29.431Z,76.50
2023-02-20T22:41:15.419Z,76.40
2023-02-20T22:44:01.616Z,76.20
2023-02-20T22:46:47.462Z,76.60
2023-02-20T22:49:33.223Z,76.50
2023-02-20T22:52:19.017Z,76.50
2023-02-20T22:55:08.080Z,76.80
2023-02-20T22:57:54.204Z,76.90
2023-02-20T23:00:40.137Z,76.50
2023-02-20T23:03:25.909Z,76.70
2023-02-20T23:06:17.850Z,77.00
2023-02-20T23:09:05.927Z,77.20
2023-02-20T23:11:55.612Z,77.00
2023-02-20T23:14:41.485Z,76.90
2023-02-20T23:17:37.197Z,76.80
2023-02-20T23:20:31.983Z,77.20
2023-02-20T23:23:17.776Z,77.40
2023-02-20T23:26:03.710Z,78.40
2023-02-20T23:28:50.007Z,78.20
2023-02-20T23:31:35.940Z,78.50
2023-02-20T23:34:22.158Z,78.60
2023-02-20T23:37:10.006Z,79.90
2023-02-20T23:39:55.926Z,79.50
2023-02-20T23:42:41.713Z,79.60
2023-02-20T23:45:27.642Z,79.20
2023-02-20T23:48:13.481Z,79.20
2023-02-20T23:50:59.223Z,79.70
2023-02-20T23:53:45.126Z,79.70
2023-02-20T23:56:31.278Z,79.90
2023-02-20T23:59:17.109Z,79.80
